Terminal Aerodrome Forecast
Issued by NWS

Home | Current Version | Previous Version | Text Only | Print | Product List | Glossary On
Versions: 1 2 3 4 5 6 7 8 9 10 11 12
000
FTUS44 KEPZ 180500
TAFTCS
TAF
KTCS 180520Z 1806/1906 28005KT P6SM VCSH SCT050 BKN080
     FM181400 VRB04KT P6SM SCT050 BKN100
     FM182200 26006KT P6SM VCSH SCT050 BKN080=

USA.gov is the U.S. government's official web portal to all federal, state and local government web resources and services.